Arbalist — J8B3636 — position and weather

sailwx.info

Track history (hours):
 
Tides and Currents Weather Stations Pressure Air Temp Water Temp Dewpoint Dewpoint Depression Visibility Wind Speed Wind Dir Waves Ship Positions

Arbalist

Last reported at 2014-Sep-17 10:33 UTC. Time now 2014-Sep-17 11:32 UTC.
Position N 44°17' E 008°33'.

Length 115 m; draft 4.5 m.

Type: Cargo ship. MMSI: 37579300.

Date/timePositionNaut miles runAvg speedWind from/ knotsBaromVisibWave heightAir tempDewpointWater temp
2014-Sep-17 10:33N 44°17' E 008°33'9 8.6
2014-Sep-17 09:33N 44°10' E 008°39'9 8.7
2014-Sep-17 08:33N 44°03' E 008°45'9 8.6
2014-Sep-17 07:33N 43°55' E 008°51'9 8.7
2014-Sep-17 06:33N 43°48' E 008°58'9 8.6
2014-Sep-17 05:33N 43°41' E 009°04'9 8.9
2014-Sep-17 04:33N 43°33' E 009°11'9 8.9
2014-Sep-17 03:33N 43°25' E 009°17'9 8.8
2014-Sep-17 02:33N 43°18' E 009°23'11 9.5
2014-Sep-17 01:27N 43°09' E 009°31'29 9.4
2014-Sep-16 22:24N 42°44' E 009°51'  
2014-Sep-13 03:33N 36°29' E 023°19'10 9.6
2014-Sep-13 02:33N 36°37' E 023°25'9 9.4
2014-Sep-13 01:33N 36°45' E 023°31'9 8.7
2014-Sep-13 00:33N 36°53' E 023°35'45 8.8
2014-Sep-12 19:28N 37°37' E 023°42'8 8.8
2014-Sep-12 18:33N 37°45' E 023°39'9 9.0
2014-Sep-12 17:33N 37°53' E 023°35'2 1.6
2014-Sep-12 16:32N 37°55' E 023°34'0 0.0
2014-Sep-12 15:32N 37°55' E 023°34'0 0.0
2014-Sep-12 14:32N 37°55' E 023°34'0 0.0
2014-Sep-12 13:32N 37°55' E 023°34'0 0.0
2014-Sep-12 12:34N 37°55' E 023°34'0 0.0
2014-Sep-12 11:34N 37°55' E 023°34'0 0.0
2014-Sep-12 10:34N 37°55' E 023°34'0 0.0
2014-Sep-12 09:34N 37°55' E 023°34'0 0.0
2014-Sep-12 08:34N 37°55' E 023°34'0 0.1
2014-Sep-12 07:34N 37°55' E 023°34'1 0.7
2014-Sep-12 06:34N 37°54' E 023°34'9 8.6
2014-Sep-12 05:34N 37°48' E 023°41'28 6.9
2014-Sep-12 01:28N 37°43' E 024°16'43 8.4
2014-Sep-11 20:18N 38°19' E 024°48'34 8.9
2014-Sep-11 16:31N 38°49' E 025°07'9 9.0
2014-Sep-11 15:33N 38°57' E 025°12'9 9.1
2014-Sep-11 14:33N 39°05' E 025°17'9 9.1
2014-Sep-11 13:32N 39°13' E 025°22'9 9.0
2014-Sep-11 12:34N 39°21' E 025°27'38 9.2
2014-Sep-11 08:23N 39°55' E 025°50'29 9.5
2014-Sep-11 05:21N 40°10' E 026°23'  
2014-Sep-08 08:04N 46°35' E 031°37'4 8.4
2014-Sep-08 07:32N 46°36' E 031°43'8 8.0
2014-Sep-08 06:33N 46°38' E 031°54'7 7.0
2014-Sep-08 05:33N 46°45' E 031°54'8 7.6
2014-Sep-08 04:33N 46°52' E 031°58'5 4.8
2014-Sep-08 03:31N 46°57' E 032°00'0 0.0
2014-Sep-08 02:31N 46°57' E 032°00'0 0.0
2014-Sep-08 01:31N 46°57' E 032°00'0 0.0
2014-Sep-08 00:31N 46°57' E 032°00'0 0.0
2014-Sep-07 23:31N 46°57' E 032°00'0 0.0
2014-Sep-07 21:31N 46°57' E 032°00'0 0.0
2014-Sep-07 20:31N 46°57' E 032°00'0 0.0
2014-Sep-07 19:31N 46°57' E 032°00'0 0.1
2014-Sep-07 18:31N 46°57' E 032°00'0 0.0
2014-Sep-07 17:31N 46°57' E 032°00'0 0.0
2014-Sep-07 16:31N 46°57' E 032°00'0 0.0
2014-Sep-07 15:31N 46°57' E 032°00'1 0.5
2014-Sep-07 14:31N 46°57' E 031°60'0 0.0
2014-Sep-07 13:31N 46°57' E 031°60'0 0.0
2014-Sep-07 12:34N 46°57' E 031°60'0 0.0
2014-Sep-07 11:34N 46°57' E 031°60'0 0.0
2014-Sep-07 10:34N 46°57' E 031°60'  
Track history (hours):
 
Tides and Currents Weather Stations Pressure Air Temp Water Temp Dewpoint Dewpoint Depression Visibility Wind Speed Wind Dir Waves Ship Positions

Arbalist

Last reported at 2014-Sep-17 10:33 UTC. Time now 2014-Sep-17 11:32 UTC.
Position N 44°17' E 008°33'.

Length 115 m; draft 4.5 m.

Type: Cargo ship. MMSI: 37579300.

Date/timePositionNaut miles runAvg speedWind from/ knotsBaromVisibWave heightAir tempDewpointWater temp
2014-Sep-17 10:33N 44°17' E 008°33'9 8.6
2014-Sep-17 09:33N 44°10' E 008°39'9 8.7
2014-Sep-17 08:33N 44°03' E 008°45'9 8.6
2014-Sep-17 07:33N 43°55' E 008°51'9 8.7
2014-Sep-17 06:33N 43°48' E 008°58'9 8.6
2014-Sep-17 05:33N 43°41' E 009°04'9 8.9
2014-Sep-17 04:33N 43°33' E 009°11'9 8.9
2014-Sep-17 03:33N 43°25' E 009°17'9 8.8
2014-Sep-17 02:33N 43°18' E 009°23'11 9.5
2014-Sep-17 01:27N 43°09' E 009°31'29 9.4
2014-Sep-16 22:24N 42°44' E 009°51'  
2014-Sep-13 03:33N 36°29' E 023°19'10 9.6
2014-Sep-13 02:33N 36°37' E 023°25'9 9.4
2014-Sep-13 01:33N 36°45' E 023°31'9 8.7
2014-Sep-13 00:33N 36°53' E 023°35'45 8.8
2014-Sep-12 19:28N 37°37' E 023°42'8 8.8
2014-Sep-12 18:33N 37°45' E 023°39'9 9.0
2014-Sep-12 17:33N 37°53' E 023°35'2 1.6
2014-Sep-12 16:32N 37°55' E 023°34'0 0.0
2014-Sep-12 15:32N 37°55' E 023°34'0 0.0
2014-Sep-12 14:32N 37°55' E 023°34'0 0.0
2014-Sep-12 13:32N 37°55' E 023°34'0 0.0
2014-Sep-12 12:34N 37°55' E 023°34'0 0.0
2014-Sep-12 11:34N 37°55' E 023°34'0 0.0
2014-Sep-12 10:34N 37°55' E 023°34'0 0.0
2014-Sep-12 09:34N 37°55' E 023°34'0 0.0
2014-Sep-12 08:34N 37°55' E 023°34'0 0.1
2014-Sep-12 07:34N 37°55' E 023°34'1 0.7
2014-Sep-12 06:34N 37°54' E 023°34'9 8.6
2014-Sep-12 05:34N 37°48' E 023°41'28 6.9
2014-Sep-12 01:28N 37°43' E 024°16'43 8.4
2014-Sep-11 20:18N 38°19' E 024°48'34 8.9
2014-Sep-11 16:31N 38°49' E 025°07'9 9.0
2014-Sep-11 15:33N 38°57' E 025°12'9 9.1
2014-Sep-11 14:33N 39°05' E 025°17'9 9.1
2014-Sep-11 13:32N 39°13' E 025°22'9 9.0
2014-Sep-11 12:34N 39°21' E 025°27'38 9.2
2014-Sep-11 08:23N 39°55' E 025°50'29 9.5
2014-Sep-11 05:21N 40°10' E 026°23'  
2014-Sep-08 08:04N 46°35' E 031°37'4 8.4
2014-Sep-08 07:32N 46°36' E 031°43'8 8.0
2014-Sep-08 06:33N 46°38' E 031°54'7 7.0
2014-Sep-08 05:33N 46°45' E 031°54'8 7.6
2014-Sep-08 04:33N 46°52' E 031°58'5 4.8
2014-Sep-08 03:31N 46°57' E 032°00'0 0.0
2014-Sep-08 02:31N 46°57' E 032°00'0 0.0
2014-Sep-08 01:31N 46°57' E 032°00'0 0.0
2014-Sep-08 00:31N 46°57' E 032°00'0 0.0
2014-Sep-07 23:31N 46°57' E 032°00'0 0.0
2014-Sep-07 21:31N 46°57' E 032°00'0 0.0
2014-Sep-07 20:31N 46°57' E 032°00'0 0.0
2014-Sep-07 19:31N 46°57' E 032°00'0 0.1
2014-Sep-07 18:31N 46°57' E 032°00'0 0.0
2014-Sep-07 17:31N 46°57' E 032°00'0 0.0
2014-Sep-07 16:31N 46°57' E 032°00'0 0.0
2014-Sep-07 15:31N 46°57' E 032°00'1 0.5
2014-Sep-07 14:31N 46°57' E 031°60'0 0.0
2014-Sep-07 13:31N 46°57' E 031°60'0 0.0
2014-Sep-07 12:34N 46°57' E 031°60'0 0.0
2014-Sep-07 11:34N 46°57' E 031°60'0 0.0
2014-Sep-07 10:34N 46°57' E 031°60'  

Dump ship's entire track history